Time;durP1;ratioP1;P1;durP2;ratioP2;P2;SDS_P1;SDS_P2;PMS_P1;PMS_P2;Temp;Humidity;BMP_temperature;BMP_pressure;BME280_temperature;BME280_humidity;BME280_pressure;Samples;Min_cycle;Max_cycle;Signal;HPM_P1;HPM_P2
2024/01/19 00:01:11;;;;;;;1.50;1.40;;;;;;;19.08;45.23;96824.81;5071613;28;20212;-25
2024/01/19 00:03:37;;;;;;;1.60;1.50;;;;;;;19.08;45.26;96834.13;5066268;28;20208;-27
2024/01/19 00:06:04;;;;;;;1.70;1.60;;;;;;;19.08;45.11;96839.19;5071834;28;20291;-25
2024/01/19 00:08:31;;;;;;;1.70;1.60;;;;;;;19.07;45.22;96845.97;5071910;28;20208;-25
2024/01/19 00:10:57;;;;;;;1.50;1.40;;;;;;;19.08;45.26;96852.81;5071472;28;20228;-28
2024/01/19 00:13:24;;;;;;;1.60;1.50;;;;;;;19.05;45.15;96845.09;5071910;28;20273;-26
2024/01/19 00:15:52;;;;;;;1.53;1.43;;;;;;;19.09;45.04;96854.53;5068691;28;20197;-25
2024/01/19 00:18:19;;;;;;;1.70;1.60;;;;;;;19.08;45.40;96855.34;5071554;28;20208;-25
2024/01/19 00:20:45;;;;;;;1.60;1.50;;;;;;;19.09;45.30;96866.38;5072095;28;20292;-25
2024/01/19 00:23:12;;;;;;;1.70;1.60;;;;;;;19.09;45.29;96876.56;5066186;28;20204;-27
2024/01/19 00:25:39;;;;;;;1.40;1.30;;;;;;;19.09;45.19;96879.13;5071885;28;20204;-25
2024/01/19 00:28:05;;;;;;;1.87;1.70;;;;;;;19.06;45.40;96884.13;5071016;28;20207;-25
2024/01/19 00:30:32;;;;;;;1.90;1.60;;;;;;;19.07;45.42;96896.91;5068283;28;20311;-25
2024/01/19 00:32:58;;;;;;;1.67;1.57;;;;;;;19.07;45.25;96901.16;5070858;28;20227;-25
2024/01/19 00:35:25;;;;;;;1.60;1.50;;;;;;;19.06;45.27;96907.03;5065892;28;20274;-25
2024/01/19 00:37:52;;;;;;;1.67;1.57;;;;;;;19.06;45.29;96904.50;5070599;28;20211;-25
2024/01/19 00:40:18;;;;;;;2.00;1.90;;;;;;;18.88;45.32;96873.41;5070321;28;20223;-27
2024/01/19 00:42:45;;;;;;;1.47;1.37;;;;;;;19.04;45.34;96901.91;5071084;28;20204;-25
2024/01/19 00:45:12;;;;;;;1.50;1.40;;;;;;;19.04;45.75;96909.53;5063949;28;20231;-25
2024/01/19 00:47:38;;;;;;;1.50;1.40;;;;;;;19.04;45.30;96917.19;5063952;28;20265;-25
2024/01/19 00:50:06;;;;;;;1.60;1.50;;;;;;;19.06;45.25;96919.78;5067553;28;20279;-25
2024/01/19 00:52:32;;;;;;;1.70;1.60;;;;;;;19.05;45.68;96930.78;5062695;28;20204;-25
2024/01/19 00:54:59;;;;;;;1.83;1.70;;;;;;;19.04;45.10;96935.00;5069548;28;20215;-27
2024/01/19 00:57:26;;;;;;;1.60;1.50;;;;;;;19.05;45.01;96930.78;5062939;28;20207;-27
2024/01/19 00:59:54;;;;;;;1.40;1.30;;;;;;;19.05;45.19;96928.25;5071207;28;20243;-25
2024/01/19 01:02:21;;;;;;;1.50;1.40;;;;;;;19.06;45.19;96927.41;5067044;28;20291;-25
2024/01/19 01:04:48;;;;;;;1.47;1.37;;;;;;;19.07;45.21;96926.63;5061239;28;20258;-26
2024/01/19 01:07:14;;;;;;;1.70;1.60;;;;;;;19.02;45.50;96920.50;5071408;28;20235;-25
2024/01/19 01:09:41;;;;;;;1.57;1.47;;;;;;;19.06;45.07;96930.84;5069514;28;20258;-25
2024/01/19 01:12:07;;;;;;;1.50;1.40;;;;;;;19.05;45.33;96934.22;5074868;28;20262;-27
2024/01/19 01:14:34;;;;;;;1.73;1.63;;;;;;;19.05;45.34;96946.94;5070456;28;20259;-26
2024/01/19 01:17:01;;;;;;;1.67;1.57;;;;;;;18.99;45.19;96945.88;5075132;28;20618;-28
2024/01/19 01:19:27;;;;;;;1.63;1.53;;;;;;;19.04;45.22;96946.91;5075085;28;20256;-25
2024/01/19 01:21:54;;;;;;;1.40;1.30;;;;;;;19.04;45.12;96944.34;5074747;28;20204;-26
2024/01/19 01:24:22;;;;;;;1.50;1.40;;;;;;;19.02;45.52;96943.44;5074277;28;20208;-26
2024/01/19 01:26:48;;;;;;;1.70;1.60;;;;;;;19.03;45.09;96947.69;5074716;28;20251;-28
2024/01/19 01:29:15;;;;;;;1.53;1.37;;;;;;;18.96;45.07;96941.59;5074816;28;20598;-25
2024/01/19 01:31:42;;;;;;;1.60;1.50;;;;;;;19.03;45.60;96952.78;5071447;28;20201;-25
2024/01/19 01:34:08;;;;;;;1.57;1.47;;;;;;;19.04;45.19;96967.28;5074194;28;20257;-25
2024/01/19 01:36:36;;;;;;;1.47;1.37;;;;;;;19.03;45.26;96966.41;5070287;28;20361;-26
2024/01/19 01:39:02;;;;;;;1.60;1.50;;;;;;;19.04;45.36;96980.00;5060021;28;20588;-25
2024/01/19 01:41:29;;;;;;;1.60;1.50;;;;;;;19.03;45.04;96983.34;5060672;28;20204;-26
2024/01/19 01:43:56;;;;;;;1.70;1.60;;;;;;;19.04;45.25;96983.41;5070247;28;20203;-25
2024/01/19 01:46:22;;;;;;;1.80;1.70;;;;;;;19.04;45.02;96990.19;5073615;28;20265;-25
2024/01/19 01:48:49;;;;;;;2.63;1.50;;;;;;;19.05;45.02;96989.38;5074301;28;20208;-25
2024/01/19 01:51:16;;;;;;;1.77;1.67;;;;;;;19.05;45.31;96997.88;5074275;28;20285;-26
2024/01/19 01:53:42;;;;;;;1.70;1.60;;;;;;;19.05;44.98;96999.56;5074017;28;20250;-25
2024/01/19 01:56:09;;;;;;;1.70;1.60;;;;;;;19.04;45.35;96998.69;5062850;28;20221;-25
2024/01/19 01:58:36;;;;;;;1.53;1.43;;;;;;;19.03;45.15;97004.59;5074122;28;20224;-26
2024/01/19 02:01:02;;;;;;;1.53;1.43;;;;;;;19.04;45.18;97015.66;5073920;28;20204;-26
2024/01/19 02:03:29;;;;;;;1.60;1.50;;;;;;;19.03;45.35;97003.72;5066060;28;20224;-25
2024/01/19 02:05:56;;;;;;;1.80;1.70;;;;;;;19.03;45.28;97014.78;5070299;28;20220;-25
2024/01/19 02:08:22;;;;;;;1.67;1.57;;;;;;;19.04;45.28;97020.75;5064055;28;20226;-25
2024/01/19 02:10:49;;;;;;;1.67;1.57;;;;;;;19.02;44.99;97015.63;5068383;28;20670;-25
2024/01/19 02:13:16;;;;;;;1.83;1.60;;;;;;;18.99;44.98;97012.97;5071836;28;20208;-25
2024/01/19 02:15:42;;;;;;;1.87;1.77;;;;;;;19.02;45.13;97030.00;5062316;28;20233;-26
2024/01/19 02:18:10;;;;;;;1.63;1.53;;;;;;;19.03;45.00;97032.59;5073997;28;20264;-25
2024/01/19 02:20:36;;;;;;;1.63;1.50;;;;;;;19.03;45.28;97045.34;5073098;28;20307;-25
2024/01/19 02:23:03;;;;;;;1.60;1.50;;;;;;;18.99;45.10;97035.88;5073595;28;20689;-26
2024/01/19 02:25:30;;;;;;;1.50;1.40;;;;;;;19.03;45.08;97042.78;5061700;28;20253;-26
2024/01/19 02:27:56;;;;;;;1.50;1.40;;;;;;;19.02;45.23;97040.19;5070571;28;20201;-25
2024/01/19 02:30:23;;;;;;;1.70;1.60;;;;;;;19.03;45.07;97045.34;5055044;28;20697;-25
2024/01/19 02:32:49;;;;;;;1.67;1.57;;;;;;;19.04;45.15;97038.56;5073373;28;20200;-27
2024/01/19 02:35:16;;;;;;;1.73;1.50;;;;;;;19.04;44.91;97047.06;5065027;28;20304;-25
2024/01/19 02:37:43;;;;;;;1.60;1.50;;;;;;;19.03;44.94;97044.47;5070322;28;20204;-25
2024/01/19 02:40:09;;;;;;;1.67;1.57;;;;;;;19.03;45.13;97045.34;5072943;28;20216;-26
2024/01/19 02:42:36;;;;;;;1.60;1.50;;;;;;;19.02;45.09;97048.72;5063342;28;20259;-25
2024/01/19 02:45:03;;;;;;;1.70;1.60;;;;;;;19.03;45.17;97052.09;5066787;28;20222;-26
2024/01/19 02:47:29;;;;;;;1.63;1.50;;;;;;;19.03;45.13;97049.56;5070301;28;20281;-25
2024/01/19 02:49:58;;;;;;;1.80;1.70;;;;;;;19.02;45.05;97058.03;5064599;28;20269;-25
2024/01/19 02:52:25;;;;;;;1.57;1.47;;;;;;;19.02;45.13;97061.44;5071165;28;20673;-25
2024/01/19 02:54:51;;;;;;;1.53;1.43;;;;;;;19.00;45.06;97060.53;5064618;28;20295;-25
2024/01/19 02:57:18;;;;;;;1.60;1.50;;;;;;;19.02;45.02;97070.75;5069133;28;20303;-26
2024/01/19 02:59:45;;;;;;;2.00;1.90;;;;;;;19.01;45.13;97077.53;5066276;28;20228;-26
2024/01/19 03:02:12;;;;;;;1.70;1.60;;;;;;;19.02;45.18;97084.38;5072679;28;20200;-27
2024/01/19 03:04:39;;;;;;;1.80;1.50;;;;;;;19.02;45.11;97088.59;5068480;28;20275;-25
2024/01/19 03:07:06;;;;;;;2.10;1.67;;;;;;;19.02;45.14;97086.91;5072295;28;20200;-25
2024/01/19 03:09:32;;;;;;;1.70;1.60;;;;;;;19.02;45.21;97084.38;5072533;28;20647;-25
2024/01/19 03:11:59;;;;;;;1.60;1.50;;;;;;;18.98;44.90;97069.78;5072295;28;20617;-26
2024/01/19 03:14:25;;;;;;;1.60;1.50;;;;;;;19.04;45.01;97089.50;5068444;28;20208;-25
2024/01/19 03:16:52;;;;;;;1.60;1.50;;;;;;;19.02;44.63;97092.00;5063381;28;20197;-27
2024/01/19 03:19:19;;;;;;;1.70;1.60;;;;;;;19.04;44.86;97100.53;5071286;28;20224;-29
2024/01/19 03:21:45;;;;;;;1.90;1.80;;;;;;;19.05;44.98;97093.78;5067806;28;20214;-27
2024/01/19 03:24:12;;;;;;;1.60;1.50;;;;;;;19.04;45.07;97095.44;5072270;28;20581;-25
2024/01/19 03:26:41;;;;;;;2.00;1.80;;;;;;;19.01;45.32;97097.06;5062588;28;20211;-25
2024/01/19 03:29:09;;;;;;;1.60;1.50;;;;;;;19.02;45.02;97102.19;5071589;28;20721;-25
2024/01/19 03:31:35;;;;;;;1.60;1.50;;;;;;;19.02;45.13;97104.75;5066673;28;20287;-25
2024/01/19 03:34:02;;;;;;;1.80;1.70;;;;;;;19.02;45.20;97101.31;5071396;28;20200;-28
2024/01/19 03:36:28;;;;;;;1.60;1.50;;;;;;;19.02;45.05;97108.97;5071636;28;20223;-25
2024/01/19 03:38:55;;;;;;;1.50;1.40;;;;;;;18.95;45.21;97105.34;5070562;28;20208;-25
2024/01/19 03:41:22;;;;;;;1.60;1.50;;;;;;;19.01;44.59;97115.72;5070193;28;20210;-25
2024/01/19 03:43:48;;;;;;;1.43;1.33;;;;;;;19.02;45.01;97116.59;5071974;28;20204;-26
2024/01/19 03:46:15;;;;;;;1.90;1.80;;;;;;;18.97;45.33;97110.47;5072003;28;20295;-25
2024/01/19 03:48:42;;;;;;;1.70;1.60;;;;;;;19.01;45.04;97123.34;5069474;28;20200;-25
2024/01/19 03:51:09;;;;;;;1.60;1.50;;;;;;;19.00;45.25;97118.22;5064893;28;20212;-25
2024/01/19 03:53:35;;;;;;;1.70;1.60;;;;;;;19.03;44.86;97124.28;5072020;28;20674;-25
2024/01/19 03:56:02;;;;;;;1.70;1.60;;;;;;;19.03;45.10;97118.31;5070804;28;20673;-26
2024/01/19 03:58:28;;;;;;;1.50;1.40;;;;;;;19.04;44.84;97127.72;5065074;28;20300;-25
2024/01/19 04:00:55;;;;;;;1.83;1.37;;;;;;;19.04;45.04;97130.25;5071444;28;20316;-26
2024/01/19 04:03:21;;;;;;;1.60;1.50;;;;;;;19.02;44.47;97126.78;5073189;28;20257;-25
2024/01/19 04:05:48;;;;;;;1.80;1.70;;;;;;;19.03;44.79;97131.06;5071021;28;20256;-25
2024/01/19 04:08:15;;;;;;;1.60;1.50;;;;;;;19.03;45.08;97138.69;5071973;28;20768;-27
2024/01/19 04:10:41;;;;;;;1.90;1.80;;;;;;;19.01;45.09;97141.19;5069836;28;20249;-26
2024/01/19 04:13:08;;;;;;;1.67;1.57;;;;;;;19.02;44.92;97137.84;5070783;28;20265;-25
2024/01/19 04:15:35;;;;;;;1.60;1.50;;;;;;;19.00;45.19;97141.13;5056783;28;20248;-25
2024/01/19 04:18:02;;;;;;;1.60;1.50;;;;;;;19.01;45.10;97147.97;5071911;28;20822;-27
2024/01/19 04:20:28;;;;;;;1.80;1.70;;;;;;;19.02;44.75;97149.69;5069017;28;20601;-25
2024/01/19 04:22:55;;;;;;;1.70;1.60;;;;;;;19.02;45.02;97152.25;5070110;28;20275;-25
2024/01/19 04:25:22;;;;;;;1.73;1.63;;;;;;;19.01;45.12;97156.47;5071936;28;20759;-27
2024/01/19 04:27:48;;;;;;;1.70;1.60;;;;;;;19.00;44.87;97154.75;5070398;28;20735;-25
2024/01/19 04:30:15;;;;;;;1.50;1.40;;;;;;;19.00;45.06;97152.19;5067554;28;20228;-25
2024/01/19 04:32:42;;;;;;;1.83;1.70;;;;;;;19.00;45.04;97157.28;5064556;28;20216;-25
2024/01/19 04:35:09;;;;;;;1.70;1.60;;;;;;;19.00;44.89;97164.94;5071562;28;20220;-24
2024/01/19 04:37:36;;;;;;;1.57;1.47;;;;;;;19.00;44.93;97164.94;5069048;28;20240;-25
2024/01/19 04:40:02;;;;;;;1.70;1.60;;;;;;;19.02;44.83;97167.53;5068153;28;20755;-24
2024/01/19 04:42:29;;;;;;;1.50;1.40;;;;;;;19.02;45.03;97170.94;5070178;28;20211;-25
2024/01/19 04:44:56;;;;;;;2.10;1.90;;;;;;;19.02;45.21;97170.94;5073436;28;20196;-24
2024/01/19 04:47:22;;;;;;;1.70;1.60;;;;;;;19.01;44.99;97169.19;5073535;28;20744;-24
2024/01/19 04:49:49;;;;;;;1.43;1.33;;;;;;;19.01;45.39;97166.66;5067856;28;20216;-25
2024/01/19 04:52:16;;;;;;;1.90;1.80;;;;;;;19.01;45.32;97171.75;5066649;28;20291;-25
2024/01/19 04:54:42;;;;;;;1.80;1.70;;;;;;;19.01;44.86;97179.38;5070804;28;20650;-25
2024/01/19 04:57:09;;;;;;;1.80;1.70;;;;;;;18.99;44.80;97186.13;5066586;28;20291;-25
2024/01/19 04:59:35;;;;;;;1.83;1.73;;;;;;;19.00;45.10;97192.06;5072468;28;20220;-24
2024/01/19 05:02:03;;;;;;;1.60;1.50;;;;;;;19.00;44.91;97200.59;5069336;28;20657;-24
2024/01/19 05:04:29;;;;;;;1.73;1.63;;;;;;;18.98;45.13;97199.66;5070269;28;20238;-25
2024/01/19 05:06:56;;;;;;;1.70;1.60;;;;;;;18.99;45.06;97201.41;5071139;28;20203;-25
2024/01/19 05:09:22;;;;;;;1.70;1.60;;;;;;;18.99;45.06;97205.63;5070941;28;20227;-24
2024/01/19 05:11:49;;;;;;;1.90;1.80;;;;;;;18.99;45.02;97203.06;5063921;28;20666;-25
2024/01/19 05:14:16;;;;;;;1.90;1.80;;;;;;;18.98;44.69;97212.38;5073979;28;20204;-24
2024/01/19 05:16:42;;;;;;;1.80;1.70;;;;;;;18.99;44.70;97226.88;5073893;28;20213;-24
2024/01/19 05:19:09;;;;;;;1.77;1.67;;;;;;;18.99;44.76;97231.97;5074190;28;20319;-24
2024/01/19 05:21:36;;;;;;;1.90;1.80;;;;;;;19.00;44.91;97230.25;5068808;28;20204;-25
2024/01/19 05:24:02;;;;;;;1.97;1.77;;;;;;;19.01;44.76;97234.56;5072679;28;20633;-25
2024/01/19 05:26:30;;;;;;;1.70;1.60;;;;;;;18.84;44.87;97211.06;5073708;28;20200;-26
2024/01/19 05:28:57;;;;;;;1.87;1.77;;;;;;;19.03;44.58;97245.66;5069278;28;20302;-24
2024/01/19 05:31:24;;;;;;;2.33;1.77;;;;;;;19.02;44.85;97247.34;5070809;28;20682;-25
2024/01/19 05:33:50;;;;;;;1.90;1.80;;;;;;;19.02;44.75;97249.91;5072108;28;20577;-25
2024/01/19 05:36:17;;;;;;;1.80;1.70;;;;;;;19.01;44.46;97248.13;5067921;28;20242;-25
2024/01/19 05:38:44;;;;;;;1.80;1.70;;;;;;;19.00;44.97;97248.97;5069842;28;20201;-25
2024/01/19 05:41:11;;;;;;;2.03;1.80;;;;;;;19.04;44.56;97249.94;5073708;28;20530;-25
2024/01/19 05:43:37;;;;;;;1.87;1.70;;;;;;;19.03;44.35;97263.47;5073552;28;20200;-24
2024/01/19 05:46:04;;;;;;;2.30;1.90;;;;;;;19.03;44.60;97266.91;5072889;28;20203;-24
2024/01/19 05:48:30;;;;;;;2.00;1.70;;;;;;;19.02;44.81;97265.19;5073071;28;20224;-24
2024/01/19 05:50:57;;;;;;;1.73;1.63;;;;;;;19.02;44.34;97260.09;5060737;28;20221;-25
2024/01/19 05:53:24;;;;;;;1.90;1.80;;;;;;;19.01;44.88;97265.97;5073595;28;20200;-24
2024/01/19 05:55:51;;;;;;;1.97;1.77;;;;;;;19.03;44.65;97274.53;5068580;28;20250;-25
2024/01/19 05:58:17;;;;;;;2.13;1.90;;;;;;;19.02;44.61;97277.03;5072381;28;20204;-25
2024/01/19 06:00:44;;;;;;;2.13;1.93;;;;;;;19.02;43.87;97282.13;5070013;28;20311;-26
2024/01/19 06:03:10;;;;;;;4.20;3.80;;;;;;;19.00;39.19;97291.38;5073414;28;20223;-25
2024/01/19 06:05:37;;;;;;;7.00;4.43;;;;;;;18.99;37.32;97297.28;5071845;28;21133;-25
2024/01/19 06:08:04;;;;;;;7.27;5.80;;;;;;;18.95;36.55;97298.84;5073831;28;20196;-24
2024/01/19 06:10:31;;;;;;;6.60;5.90;;;;;;;18.92;35.19;97308.94;5072685;28;20251;-25
2024/01/19 06:12:57;;;;;;;9.37;6.80;;;;;;;18.90;34.62;97309.69;5072717;28;20670;-25
2024/01/19 06:15:24;;;;;;;7.90;6.10;;;;;;;18.86;34.78;97308.72;5073088;28;20247;-24
2024/01/19 06:17:50;;;;;;;7.87;6.23;;;;;;;18.84;34.42;97315.44;5072702;28;20242;-24
2024/01/19 06:20:17;;;;;;;8.17;6.43;;;;;;;18.80;33.91;97317.84;5067584;28;20426;-24
2024/01/19 06:22:44;;;;;;;7.20;6.30;;;;;;;18.78;33.73;97324.53;5069530;28;20188;-24
2024/01/19 06:25:10;;;;;;;6.97;6.17;;;;;;;18.76;33.55;97328.69;5071218;28;20196;-24
2024/01/19 06:27:37;;;;;;;7.03;6.33;;;;;;;18.75;33.17;97339.69;5067712;28;20621;-25
2024/01/19 06:30:05;;;;;;;8.37;6.83;;;;;;;18.73;33.89;97338.75;5065939;28;20232;-24
2024/01/19 06:32:32;;;;;;;8.00;6.10;;;;;;;18.74;35.24;97337.97;5065941;28;20227;-23
2024/01/19 06:34:59;;;;;;;6.20;5.60;;;;;;;18.73;36.38;97338.75;5070086;28;20688;-24
2024/01/19 06:37:25;;;;;;;7.03;5.93;;;;;;;18.74;37.62;97340.50;5072385;28;20228;-24
2024/01/19 06:39:52;;;;;;;7.37;6.13;;;;;;;18.73;37.96;97342.19;5069104;28;20216;-25
2024/01/19 06:42:19;;;;;;;6.33;5.73;;;;;;;18.74;38.45;97350.69;5071198;28;20246;-25
2024/01/19 06:44:45;;;;;;;6.27;5.43;;;;;;;18.73;39.35;97347.28;5071994;28;20666;-24
2024/01/19 06:47:12;;;;;;;6.07;5.07;;;;;;;18.74;39.42;97359.19;5068417;28;20199;-24
2024/01/19 06:49:39;;;;;;;6.50;5.07;;;;;;;18.75;39.82;97365.16;5071828;28;20220;-24
2024/01/19 06:52:06;;;;;;;5.60;4.40;;;;;;;18.77;40.07;97369.47;5070881;28;20220;-25
2024/01/19 06:54:32;;;;;;;5.03;4.47;;;;;;;18.77;40.26;97371.19;5071286;28;20278;-25
2024/01/19 06:56:59;;;;;;;4.90;4.40;;;;;;;18.80;40.06;97373.84;5069430;28;20303;-24
2024/01/19 06:59:26;;;;;;;6.70;4.60;;;;;;;18.81;40.81;97376.44;5072037;28;20224;-24
2024/01/19 07:01:52;;;;;;;10.83;4.40;;;;;;;18.83;40.61;97382.44;5070150;28;20283;-25
2024/01/19 07:04:19;;;;;;;5.57;4.23;;;;;;;18.83;40.70;97384.13;5071751;28;20205;-24
2024/01/19 07:06:46;;;;;;;6.73;4.50;;;;;;;18.83;40.66;97386.69;5064920;28;20241;-25
2024/01/19 07:09:13;;;;;;;4.63;4.20;;;;;;;18.83;40.76;97392.63;5069262;28;20212;-25
2024/01/19 07:11:40;;;;;;;5.40;4.43;;;;;;;18.83;41.01;97396.88;5071371;28;20208;-24
2024/01/19 07:14:09;;;;;;;4.53;3.93;;;;;;;18.83;41.20;97389.22;5068211;28;20239;-24
2024/01/19 07:16:39;;;;;;;4.60;3.90;;;;;;;18.84;41.35;97402.03;5068417;28;20224;-25
2024/01/19 07:19:06;;;;;;;4.40;3.80;;;;;;;18.85;41.57;97410.50;5067473;28;20762;-25
2024/01/19 07:21:39;;;;;;;4.43;4.03;;;;;;;18.82;41.60;97407.84;5070207;28;20204;-25
2024/01/19 07:24:06;;;;;;;4.90;3.73;;;;;;;18.87;41.67;97416.53;5077107;28;20196;-24
2024/01/19 07:26:33;;;;;;;4.60;3.97;;;;;;;18.87;41.90;97426.72;5068977;28;20196;-24
2024/01/19 07:29:04;;;;;;;3.83;3.43;;;;;;;18.87;41.76;97427.59;5069819;28;21715;-25
2024/01/19 07:31:31;;;;;;;4.40;3.83;;;;;;;18.89;41.74;97440.38;5066886;28;20527;-25
2024/01/19 07:33:57;;;;;;;4.57;3.10;;;;;;;18.89;41.74;97442.94;5067862;28;20200;-24
2024/01/19 07:36:25;;;;;;;4.00;3.27;;;;;;;18.89;42.04;97445.47;5067512;28;20216;-24
2024/01/19 07:38:52;;;;;;;3.90;3.47;;;;;;;18.83;42.07;97435.06;5066167;28;20496;-25
2024/01/19 07:41:18;;;;;;;3.77;3.47;;;;;;;18.88;42.11;97449.69;5069673;28;20211;-25
2024/01/19 07:43:45;;;;;;;4.60;3.73;;;;;;;18.89;42.02;97453.97;5067642;28;20204;-25
2024/01/19 07:46:14;;;;;;;3.70;3.40;;;;;;;18.89;42.22;97459.06;5068965;28;20656;-24
2024/01/19 07:48:41;;;;;;;3.93;3.53;;;;;;;18.89;42.16;97465.84;5066650;28;20258;-22
2024/01/19 07:51:07;;;;;;;4.60;3.23;;;;;;;18.89;42.42;97470.94;5068177;28;20296;-24
2024/01/19 07:53:34;;;;;;;3.73;3.33;;;;;;;18.89;41.96;97476.03;5068491;28;20209;-24
2024/01/19 07:56:00;;;;;;;3.40;3.10;;;;;;;18.90;42.25;97478.63;5067837;28;20310;-26
2024/01/19 07:58:27;;;;;;;3.33;2.87;;;;;;;18.91;42.08;97492.22;5065217;28;20193;-24
2024/01/19 08:00:54;;;;;;;3.30;2.93;;;;;;;18.91;42.20;97493.09;5067332;28;20224;-25
2024/01/19 08:03:20;;;;;;;3.40;3.10;;;;;;;18.91;42.06;97495.63;5068522;28;20669;-24
2024/01/19 08:05:47;;;;;;;3.43;3.13;;;;;;;18.93;42.40;97504.22;5058801;28;20210;-24
2024/01/19 08:08:15;;;;;;;3.30;3.00;;;;;;;18.94;42.45;97511.03;5067076;28;20216;-24
2024/01/19 08:10:41;;;;;;;3.63;3.30;;;;;;;18.94;42.35;97517.81;5065141;28;20712;-23
2024/01/19 08:13:08;;;;;;;3.50;3.20;;;;;;;18.94;42.57;97515.25;5077052;28;20700;-25
2024/01/19 08:15:35;;;;;;;3.03;2.80;;;;;;;18.93;42.32;97536.44;5070967;28;20200;-25
2024/01/19 08:18:02;;;;;;;4.83;4.23;;;;;;;18.91;39.87;97516.00;5060905;28;20197;-24
2024/01/19 08:20:29;;;;;;;5.80;5.20;;;;;;;18.89;39.95;97517.63;5070066;28;20215;-25
2024/01/19 08:22:56;;;;;;;6.07;5.00;;;;;;;18.90;40.59;97526.13;5068201;28;20227;-24
2024/01/19 08:25:22;;;;;;;5.10;4.07;;;;;;;18.89;41.01;97529.50;5069516;28;20665;-25
2024/01/19 08:27:49;;;;;;;4.97;4.50;;;;;;;18.88;41.14;97540.47;5067943;28;20230;-24
2024/01/19 08:30:16;;;;;;;4.60;4.10;;;;;;;18.88;41.31;97543.91;5066036;28;20236;-26
2024/01/19 08:32:42;;;;;;;4.27;3.87;;;;;;;18.88;41.57;97545.56;5067439;28;20204;-23
2024/01/19 08:35:09;;;;;;;4.40;3.90;;;;;;;18.90;41.37;97551.59;5068975;28;20283;-25
2024/01/19 08:37:39;;;;;;;4.73;3.53;;;;;;;18.90;41.98;97555.03;5067891;28;20265;-25
2024/01/19 08:40:12;;;;;;;5.33;3.90;;;;;;;18.90;41.70;97552.47;5069398;28;20293;-24
2024/01/19 08:42:39;;;;;;;4.00;3.70;;;;;;;18.89;41.82;97558.38;5068073;28;20253;-24
2024/01/19 08:45:06;;;;;;;4.10;3.70;;;;;;;18.88;41.91;97569.38;5068975;28;20204;-24
2024/01/19 08:47:33;;;;;;;3.87;3.47;;;;;;;18.89;42.03;97570.25;5065291;28;20192;-24
2024/01/19 08:49:59;;;;;;;5.80;3.80;;;;;;;18.89;42.24;97581.28;5068698;28;20310;-24
2024/01/19 08:52:28;;;;;;;3.80;3.50;;;;;;;18.88;42.08;97586.31;5065866;28;20215;-26
2024/01/19 08:54:55;;;;;;;3.60;3.30;;;;;;;18.88;42.15;97596.50;5066559;28;20634;-23
2024/01/19 08:57:23;;;;;;;3.83;3.40;;;;;;;18.88;41.93;97596.50;5071219;28;20311;-25
2024/01/19 08:59:50;;;;;;;3.67;3.37;;;;;;;18.87;42.21;97598.19;5067358;28;20227;-25
2024/01/19 09:02:17;;;;;;;3.60;3.30;;;;;;;18.88;42.04;97606.69;5069034;28;20673;-24
2024/01/19 09:04:43;;;;;;;3.57;3.27;;;;;;;18.88;42.27;97604.13;5068516;28;20234;-25
2024/01/19 09:07:10;;;;;;;3.50;3.20;;;;;;;18.86;42.37;97606.63;5067890;28;20192;-24
2024/01/19 09:09:37;;;;;;;4.00;3.27;;;;;;;18.88;42.35;97607.56;5065771;28;20232;-25
2024/01/19 09:12:04;;;;;;;4.10;3.50;;;;;;;18.88;42.39;97615.19;5068761;28;20200;-24
2024/01/19 09:14:31;;;;;;;3.33;2.93;;;;;;;18.89;42.52;97621.16;5062302;28;20204;-26
2024/01/19 09:16:58;;;;;;;4.57;3.23;;;;;;;18.89;42.48;97626.25;5066889;28;20311;-24
2024/01/19 09:19:25;;;;;;;4.00;3.27;;;;;;;18.89;42.65;97629.66;5066031;28;20592;-25
2024/01/19 09:21:51;;;;;;;4.33;3.50;;;;;;;18.90;42.68;97641.59;5064714;28;20203;-25
2024/01/19 09:24:18;;;;;;;3.27;2.97;;;;;;;18.90;42.54;97643.28;5068737;28;20212;-24
2024/01/19 09:26:45;;;;;;;3.97;3.10;;;;;;;18.91;42.63;97647.53;5061843;28;20677;-23
2024/01/19 09:29:11;;;;;;;4.30;3.23;;;;;;;18.91;42.62;97650.09;5062737;28;20236;-24
2024/01/19 09:31:44;;;;;;;4.13;3.20;;;;;;;18.92;42.50;97652.69;5073819;28;20200;-25
2024/01/19 09:34:11;;;;;;;5.67;3.03;;;;;;;18.92;42.46;97665.44;5073527;28;20200;-23
2024/01/19 09:36:38;;;;;;;3.10;2.80;;;;;;;18.92;42.54;97667.13;5072916;28;20211;-24
2024/01/19 09:39:08;;;;;;;3.50;2.70;;;;;;;18.92;42.61;97667.97;5068675;28;20283;-22
2024/01/19 09:41:47;;;;;;;4.90;3.00;;;;;;;18.92;42.47;97682.41;5068363;28;20275;-24
2024/01/19 09:44:16;;;;;;;3.90;3.13;;;;;;;18.86;42.68;97672.81;5071324;28;20741;-25
2024/01/19 09:46:51;;;;;;;3.27;2.97;;;;;;;18.91;42.55;97693.38;5070930;28;20224;-25
2024/01/19 09:49:50;;;;;;;3.17;2.87;;;;;;;18.90;42.56;97705.28;5061635;28;20232;-24
2024/01/19 09:52:17;;;;;;;3.43;3.13;;;;;;;18.90;42.80;97697.63;5072204;28;20258;-25
2024/01/19 09:54:43;;;;;;;3.27;2.90;;;;;;;18.79;43.00;97683.56;5070938;28;20640;-25
2024/01/19 09:57:10;;;;;;;2.93;2.70;;;;;;;18.90;42.66;97701.84;5067031;28;20641;-24
2024/01/19 09:59:37;;;;;;;4.10;3.23;;;;;;;18.90;42.96;97704.38;5083703;28;20224;-24
2024/01/19 10:02:03;;;;;;;3.47;3.00;;;;;;;18.88;42.50;97708.53;5071082;28;20197;-24
2024/01/19 10:04:31;;;;;;;4.60;2.90;;;;;;;18.83;41.58;97699.84;5064950;28;20620;-24
2024/01/19 10:06:57;;;;;;;4.00;3.50;;;;;;;18.94;41.82;97713.88;5067568;28;20226;-25
2024/01/19 10:09:24;;;;;;;5.13;3.53;;;;;;;18.95;42.29;97719.03;5071805;28;20727;-24
2024/01/19 10:11:52;;;;;;;3.20;2.90;;;;;;;18.90;42.17;97704.38;5064311;28;20232;-24
2024/01/19 10:14:19;;;;;;;3.33;2.97;;;;;;;18.93;42.48;97704.50;5069657;28;20227;-24
2024/01/19 10:16:47;;;;;;;4.03;2.90;;;;;;;18.97;42.31;97714.91;5075186;28;20217;-24
2024/01/19 10:19:16;;;;;;;3.63;2.80;;;;;;;18.98;42.29;97718.31;5073699;28;20228;-24
2024/01/19 10:21:43;;;;;;;3.20;2.90;;;;;;;18.99;42.46;97725.16;5073085;28;20207;-24
2024/01/19 10:24:11;;;;;;;3.97;2.93;;;;;;;18.99;42.31;97737.88;5073714;28;20203;-25
2024/01/19 10:26:37;;;;;;;3.60;3.20;;;;;;;19.00;42.33;97726.88;5076730;28;20254;-25
2024/01/19 10:29:14;;;;;;;5.40;3.07;;;;;;;19.00;42.46;97731.97;5072783;28;20220;-24
2024/01/19 10:31:41;;;;;;;3.30;3.00;;;;;;;18.99;42.39;97732.78;5067438;28;20551;-25
2024/01/19 10:34:18;;;;;;;3.90;3.00;;;;;;;19.00;42.49;97730.31;5068490;28;20201;-25
2024/01/19 10:36:45;;;;;;;3.63;2.90;;;;;;;19.01;41.64;97726.94;5068799;28;20605;-25
2024/01/19 10:39:16;;;;;;;5.63;3.00;;;;;;;19.01;42.17;97739.69;5072170;28;20563;-25
2024/01/19 10:41:43;;;;;;;5.17;3.53;;;;;;;18.99;42.45;97736.22;5072681;28;20193;-25
2024/01/19 10:44:14;;;;;;;3.53;3.13;;;;;;;19.00;42.46;97737.06;5075688;28;20207;-25
2024/01/19 10:46:40;;;;;;;4.33;3.20;;;;;;;18.99;42.49;97742.97;5073314;28;20619;-25
2024/01/19 10:49:08;;;;;;;3.13;2.83;;;;;;;18.96;42.66;97735.19;5076998;28;20705;-26
2024/01/19 10:51:37;;;;;;;3.20;2.90;;;;;;;18.97;42.50;97736.94;5072651;28;20200;-25
2024/01/19 10:54:03;;;;;;;3.30;3.00;;;;;;;18.95;42.42;97736.03;5072933;28;20658;-25
2024/01/19 10:56:30;;;;;;;4.30;3.53;;;;;;;18.99;42.47;97745.53;5053756;28;20253;-25
2024/01/19 10:59:10;;;;;;;4.60;3.37;;;;;;;18.99;42.51;97745.53;5077599;28;20224;-30
2024/01/19 11:01:37;;;;;;;3.83;3.20;;;;;;;18.99;42.58;97743.84;5065423;28;20253;-26
2024/01/19 11:04:06;;;;;;;3.30;3.00;;;;;;;18.98;42.62;97748.88;5069064;28;20196;-25
2024/01/19 11:06:34;;;;;;;4.80;2.90;;;;;;;18.98;42.56;97757.38;5065685;28;20196;-26
2024/01/19 11:09:01;;;;;;;3.13;2.83;;;;;;;18.97;42.63;97754.75;5071303;28;20770;-27
2024/01/19 11:11:27;;;;;;;5.53;3.13;;;;;;;18.96;42.43;97764.09;5072494;28;20207;-25
2024/01/19 11:13:54;;;;;;;5.40;3.23;;;;;;;18.96;42.85;97769.19;5070742;28;20207;-25
2024/01/19 11:16:23;;;;;;;5.43;3.30;;;;;;;18.94;42.66;97765.69;5068289;28;20212;-25
2024/01/19 11:18:50;;;;;;;3.40;3.10;;;;;;;18.96;42.85;97763.22;5047852;28;20255;-27
2024/01/19 11:21:17;;;;;;;3.83;2.83;;;;;;;18.96;42.61;97763.22;5057605;28;20594;-25
2024/01/19 11:23:43;;;;;;;4.73;3.10;;;;;;;18.94;42.87;97754.63;5067690;28;20193;-27
2024/01/19 11:26:15;;;;;;;2.67;2.47;;;;;;;18.94;42.70;97759.72;5084719;28;20232;-26
2024/01/19 11:29:00;;;;;;;2.90;2.50;;;;;;;18.97;42.87;97763.28;5066765;28;20197;-25
2024/01/19 11:31:34;;;;;;;3.17;2.60;;;;;;;18.97;42.55;97763.28;5085347;28;20199;-25
2024/01/19 11:34:01;;;;;;;3.60;3.10;;;;;;;18.97;42.67;97767.50;5048480;28;21159;-25